sensor_id;sensor_type;location;lat;lon;timestamp;pressure;altitude;pressure_sealevel;temperature;humidity
7180;BME280;3631;42.152;24.756;2023-02-28T00:01:22;99901.16;;;11.13;98.35
7180;BME280;3631;42.152;24.756;2023-02-28T00:03:50;99911.31;;;11.22;97.45
7180;BME280;3631;42.152;24.756;2023-02-28T00:06:18;99908.88;;;11.16;97.66
7180;BME280;3631;42.152;24.756;2023-02-28T00:08:46;99917.31;;;11.24;97.23
7180;BME280;3631;42.152;24.756;2023-02-28T00:11:15;99918.19;;;11.24;96.83
7180;BME280;3631;42.152;24.756;2023-02-28T00:13:44;99912.06;;;11.27;96.77
7180;BME280;3631;42.152;24.756;2023-02-28T00:16:16;99910.69;;;11.12;97.58
7180;BME280;3631;42.152;24.756;2023-02-28T00:18:43;99921.63;;;11.25;97.56
7180;BME280;3631;42.152;24.756;2023-02-28T00:21:12;99909.44;;;11.28;97.20
7180;BME280;3631;42.152;24.756;2023-02-28T00:23:39;99911.25;;;11.25;97.01
7180;BME280;3631;42.152;24.756;2023-02-28T00:26:06;99914.44;;;11.35;96.34
7180;BME280;3631;42.152;24.756;2023-02-28T00:28:32;99918.75;;;11.36;96.05
7180;BME280;3631;42.152;24.756;2023-02-28T00:30:59;99915.25;;;11.38;96.03
7180;BME280;3631;42.152;24.756;2023-02-28T00:33:26;99911.75;;;11.39;95.97
7180;BME280;3631;42.152;24.756;2023-02-28T00:36:04;99904.91;;;11.35;96.12
7180;BME280;3631;42.152;24.756;2023-02-28T00:38:33;99899.66;;;11.38;96.26
7180;BME280;3631;42.152;24.756;2023-02-28T00:41:00;99888.63;;;11.28;96.94
7180;BME280;3631;42.152;24.756;2023-02-28T00:43:31;99898.38;;;11.19;97.82
7180;BME280;3631;42.152;24.756;2023-02-28T00:45:58;99892.44;;;11.15;97.86
7180;BME280;3631;42.152;24.756;2023-02-28T00:48:25;99903.00;;;11.08;99.23
7180;BME280;3631;42.152;24.756;2023-02-28T00:50:52;99907.00;;;11.21;98.21
7180;BME280;3631;42.152;24.756;2023-02-28T00:53:19;99910.34;;;11.26;97.94
7180;BME280;3631;42.152;24.756;2023-02-28T00:55:47;99913.78;;;11.28;97.65
7180;BME280;3631;42.152;24.756;2023-02-28T00:58:14;99906.84;;;11.28;97.55
7180;BME280;3631;42.152;24.756;2023-02-28T01:00:41;99910.13;;;11.35;97.17
7180;BME280;3631;42.152;24.756;2023-02-28T01:03:08;99909.94;;;11.41;96.82
7180;BME280;3631;42.152;24.756;2023-02-28T01:05:35;99916.13;;;11.37;96.95
7180;BME280;3631;42.152;24.756;2023-02-28T01:08:02;99923.75;;;11.43;96.18
7180;BME280;3631;42.152;24.756;2023-02-28T01:10:29;99931.72;;;11.37;96.57
7180;BME280;3631;42.152;24.756;2023-02-28T01:12:58;99930.91;;;11.35;96.29
7180;BME280;3631;42.152;24.756;2023-02-28T01:15:25;99927.56;;;11.30;96.57
7180;BME280;3631;42.152;24.756;2023-02-28T01:17:52;99931.81;;;11.33;96.53
7180;BME280;3631;42.152;24.756;2023-02-28T01:20:19;99936.94;;;11.36;96.56
7180;BME280;3631;42.152;24.756;2023-02-28T01:22:46;99937.16;;;11.28;97.43
7180;BME280;3631;42.152;24.756;2023-02-28T01:25:13;99946.63;;;11.29;97.67
7180;BME280;3631;42.152;24.756;2023-02-28T01:27:40;99937.88;;;11.33;97.11
7180;BME280;3631;42.152;24.756;2023-02-28T01:30:09;99938.66;;;11.37;96.51
7180;BME280;3631;42.152;24.756;2023-02-28T01:32:36;99933.28;;;11.43;95.87
7180;BME280;3631;42.152;24.756;2023-02-28T01:35:04;99927.06;;;11.50;95.07
7180;BME280;3631;42.152;24.756;2023-02-28T01:37:31;99943.44;;;11.52;94.68
7180;BME280;3631;42.152;24.756;2023-02-28T01:39:58;99946.97;;;11.51;94.35
7180;BME280;3631;42.152;24.756;2023-02-28T01:42:25;99954.19;;;11.40;94.84
7180;BME280;3631;42.152;24.756;2023-02-28T01:44:58;99957.72;;;11.37;95.54
7180;BME280;3631;42.152;24.756;2023-02-28T01:47:30;99956.88;;;11.35;94.99
7180;BME280;3631;42.152;24.756;2023-02-28T01:49:58;99968.28;;;11.29;95.41
7180;BME280;3631;42.152;24.756;2023-02-28T01:52:27;99980.38;;;11.31;95.77
7180;BME280;3631;42.152;24.756;2023-02-28T01:54:56;99965.06;;;11.20;96.02
7180;BME280;3631;42.152;24.756;2023-02-28T01:57:29;99977.06;;;11.25;96.20
7180;BME280;3631;42.152;24.756;2023-02-28T02:00:06;99979.59;;;11.28;96.26
7180;BME280;3631;42.152;24.756;2023-02-28T02:02:36;99983.13;;;11.24;96.98
7180;BME280;3631;42.152;24.756;2023-02-28T02:05:06;99994.34;;;11.26;97.35
7180;BME280;3631;42.152;24.756;2023-02-28T02:07:36;99991.78;;;11.25;97.13
7180;BME280;3631;42.152;24.756;2023-02-28T02:10:06;99996.81;;;11.31;96.52
7180;BME280;3631;42.152;24.756;2023-02-28T02:12:58;99999.47;;;11.29;96.27
7180;BME280;3631;42.152;24.756;2023-02-28T02:15:33;99991.47;;;11.39;95.55
7180;BME280;3631;42.152;24.756;2023-02-28T02:18:07;99992.22;;;11.42;97.13
7180;BME280;3631;42.152;24.756;2023-02-28T02:21:15;99992.66;;;11.25;100.00
7180;BME280;3631;42.152;24.756;2023-02-28T02:27:07;99987.22;;;11.35;100.00
7180;BME280;3631;42.152;24.756;2023-02-28T02:30:04;99999.63;;;11.23;100.00
7180;BME280;3631;42.152;24.756;2023-02-28T02:33:06;99991.41;;;11.05;100.00
7180;BME280;3631;42.152;24.756;2023-02-28T02:35:40;100003.53;;;11.04;100.00
7180;BME280;3631;42.152;24.756;2023-02-28T02:38:17;100008.16;;;10.91;100.00
7180;BME280;3631;42.152;24.756;2023-02-28T02:40:51;100005.00;;;10.77;100.00
7180;BME280;3631;42.152;24.756;2023-02-28T02:43:24;99989.72;;;10.64;100.00
7180;BME280;3631;42.152;24.756;2023-02-28T02:45:54;100004.38;;;10.66;100.00
7180;BME280;3631;42.152;24.756;2023-02-28T02:48:26;100011.41;;;10.61;100.00
7180;BME280;3631;42.152;24.756;2023-02-28T02:50:59;100020.44;;;10.43;100.00
7180;BME280;3631;42.152;24.756;2023-02-28T02:53:31;100029.22;;;10.36;100.00
7180;BME280;3631;42.152;24.756;2023-02-28T02:56:00;100024.09;;;10.33;100.00
7180;BME280;3631;42.152;24.756;2023-02-28T02:58:31;100027.72;;;10.25;100.00
7180;BME280;3631;42.152;24.756;2023-02-28T03:01:02;100040.81;;;10.18;100.00
7180;BME280;3631;42.152;24.756;2023-02-28T03:03:31;100040.72;;;10.23;100.00
7180;BME280;3631;42.152;24.756;2023-02-28T03:06:01;100050.09;;;10.30;100.00
7180;BME280;3631;42.152;24.756;2023-02-28T03:08:33;100056.13;;;10.31;100.00
7180;BME280;3631;42.152;24.756;2023-02-28T03:11:02;100052.91;;;10.19;100.00
7180;BME280;3631;42.152;24.756;2023-02-28T03:13:52;100058.19;;;10.13;100.00
7180;BME280;3631;42.152;24.756;2023-02-28T03:16:36;100059.81;;;10.17;100.00
7180;BME280;3631;42.152;24.756;2023-02-28T03:19:18;100060.75;;;10.15;100.00
7180;BME280;3631;42.152;24.756;2023-02-28T03:22:00;100058.09;;;10.16;100.00
7180;BME280;3631;42.152;24.756;2023-02-28T03:24:35;100064.28;;;10.09;100.00
7180;BME280;3631;42.152;24.756;2023-02-28T03:27:08;100056.63;;;10.03;100.00
7180;BME280;3631;42.152;24.756;2023-02-28T03:29:39;100070.28;;;10.13;100.00
7180;BME280;3631;42.152;24.756;2023-02-28T03:32:23;100072.91;;;10.11;100.00
7180;BME280;3631;42.152;24.756;2023-02-28T03:34:56;100070.41;;;10.05;100.00
7180;BME280;3631;42.152;24.756;2023-02-28T03:37:28;100068.72;;;10.04;100.00
7180;BME280;3631;42.152;24.756;2023-02-28T03:39:59;100061.28;;;9.84;100.00
7180;BME280;3631;42.152;24.756;2023-02-28T03:42:29;100074.31;;;9.80;100.00
7180;BME280;3631;42.152;24.756;2023-02-28T03:45:00;100070.84;;;9.81;100.00
7180;BME280;3631;42.152;24.756;2023-02-28T03:47:31;100076.06;;;9.79;100.00
7180;BME280;3631;42.152;24.756;2023-02-28T03:50:01;100080.28;;;9.83;100.00
7180;BME280;3631;42.152;24.756;2023-02-28T03:52:35;100062.44;;;9.68;100.00
7180;BME280;3631;42.152;24.756;2023-02-28T03:55:08;100089.00;;;9.81;100.00
7180;BME280;3631;42.152;24.756;2023-02-28T03:57:40;100087.28;;;9.81;100.00
7180;BME280;3631;42.152;24.756;2023-02-28T04:00:13;100087.34;;;9.75;100.00
7180;BME280;3631;42.152;24.756;2023-02-28T04:02:41;100095.84;;;9.83;100.00
7180;BME280;3631;42.152;24.756;2023-02-28T04:05:08;100085.50;;;9.82;100.00
7180;BME280;3631;42.152;24.756;2023-02-28T04:07:37;100105.38;;;9.83;100.00
7180;BME280;3631;42.152;24.756;2023-02-28T04:10:05;100103.59;;;9.87;100.00
7180;BME280;3631;42.152;24.756;2023-02-28T04:12:32;100099.25;;;9.87;100.00
7180;BME280;3631;42.152;24.756;2023-02-28T04:14:59;100115.66;;;9.89;100.00
7180;BME280;3631;42.152;24.756;2023-02-28T04:17:26;100116.56;;;9.87;100.00
7180;BME280;3631;42.152;24.756;2023-02-28T04:19:52;100119.09;;;9.91;100.00
7180;BME280;3631;42.152;24.756;2023-02-28T04:22:22;100123.44;;;9.89;100.00
7180;BME280;3631;42.152;24.756;2023-02-28T04:24:52;100124.28;;;9.90;100.00
7180;BME280;3631;42.152;24.756;2023-02-28T04:27:19;100124.31;;;9.88;100.00
7180;BME280;3631;42.152;24.756;2023-02-28T04:29:46;100118.41;;;9.80;100.00
7180;BME280;3631;42.152;24.756;2023-02-28T04:32:13;100115.72;;;9.83;100.00
7180;BME280;3631;42.152;24.756;2023-02-28T04:34:40;100115.72;;;9.83;100.00
7180;BME280;3631;42.152;24.756;2023-02-28T04:37:07;100117.38;;;9.90;100.00
7180;BME280;3631;42.152;24.756;2023-02-28T04:39:36;100111.28;;;9.93;100.00
7180;BME280;3631;42.152;24.756;2023-02-28T04:42:04;100090.06;;;9.69;100.00
7180;BME280;3631;42.152;24.756;2023-02-28T04:44:31;100113.13;;;9.84;100.00
7180;BME280;3631;42.152;24.756;2023-02-28T04:46:58;100117.47;;;9.82;100.00
7180;BME280;3631;42.152;24.756;2023-02-28T04:49:28;100127.22;;;9.70;100.00
7180;BME280;3631;42.152;24.756;2023-02-28T04:51:55;100125.47;;;9.70;100.00
7180;BME280;3631;42.152;24.756;2023-02-28T04:54:22;100120.19;;;9.75;100.00
7180;BME280;3631;42.152;24.756;2023-02-28T04:56:49;100115.09;;;9.70;100.00
7180;BME280;3631;42.152;24.756;2023-02-28T04:59:18;100119.38;;;9.71;100.00
7180;BME280;3631;42.152;24.756;2023-02-28T05:01:46;100124.53;;;9.74;100.00
7180;BME280;3631;42.152;24.756;2023-02-28T05:04:14;100136.72;;;9.69;100.00
7180;BME280;3631;42.152;24.756;2023-02-28T05:06:41;100138.53;;;9.63;100.00
7180;BME280;3631;42.152;24.756;2023-02-28T05:09:08;100147.84;;;9.76;100.00
7180;BME280;3631;42.152;24.756;2023-02-28T05:11:37;100150.44;;;9.74;100.00
7180;BME280;3631;42.152;24.756;2023-02-28T05:14:06;100156.50;;;9.73;100.00
7180;BME280;3631;42.152;24.756;2023-02-28T05:16:35;100143.50;;;9.78;100.00
7180;BME280;3631;42.152;24.756;2023-02-28T05:19:02;100145.81;;;9.93;100.00
7180;BME280;3631;42.152;24.756;2023-02-28T05:21:31;100152.84;;;9.87;100.00
7180;BME280;3631;42.152;24.756;2023-02-28T05:24:00;100156.34;;;9.82;100.00
7180;BME280;3631;42.152;24.756;2023-02-28T05:26:27;100152.97;;;9.79;100.00
7180;BME280;3631;42.152;24.756;2023-02-28T05:28:55;100148.84;;;9.66;100.00
7180;BME280;3631;42.152;24.756;2023-02-28T05:31:22;100162.81;;;9.57;100.00
7180;BME280;3631;42.152;24.756;2023-02-28T05:33:51;100172.38;;;9.52;100.00
7180;BME280;3631;42.152;24.756;2023-02-28T05:36:18;100176.84;;;9.41;100.00
7180;BME280;3631;42.152;24.756;2023-02-28T05:38:46;100186.34;;;9.42;100.00
7180;BME280;3631;42.152;24.756;2023-02-28T05:41:14;100183.75;;;9.42;100.00
7180;BME280;3631;42.152;24.756;2023-02-28T05:43:41;100180.16;;;9.51;100.00
7180;BME280;3631;42.152;24.756;2023-02-28T05:46:10;100191.34;;;9.54;100.00
7180;BME280;3631;42.152;24.756;2023-02-28T05:48:39;100197.34;;;9.59;100.00
7180;BME280;3631;42.152;24.756;2023-02-28T05:51:08;100198.16;;;9.60;100.00
7180;BME280;3631;42.152;24.756;2023-02-28T05:53:35;100191.31;;;9.59;100.00
7180;BME280;3631;42.152;24.756;2023-02-28T05:56:02;100191.41;;;9.48;100.00
7180;BME280;3631;42.152;24.756;2023-02-28T05:58:30;100199.25;;;9.46;100.00
7180;BME280;3631;42.152;24.756;2023-02-28T06:00:57;100195.81;;;9.44;100.00
7180;BME280;3631;42.152;24.756;2023-02-28T06:03:24;100186.38;;;9.39;100.00
7180;BME280;3631;42.152;24.756;2023-02-28T06:05:52;100206.97;;;9.48;100.00
7180;BME280;3631;42.152;24.756;2023-02-28T06:08:20;100201.78;;;9.48;100.00
7180;BME280;3631;42.152;24.756;2023-02-28T06:10:47;100211.25;;;9.51;100.00
7180;BME280;3631;42.152;24.756;2023-02-28T06:13:14;100207.78;;;9.52;100.00
7180;BME280;3631;42.152;24.756;2023-02-28T06:15:41;100213.81;;;9.54;100.00
7180;BME280;3631;42.152;24.756;2023-02-28T06:18:08;100213.84;;;9.52;100.00
7180;BME280;3631;42.152;24.756;2023-02-28T06:20:35;100214.72;;;9.50;100.00
7180;BME280;3631;42.152;24.756;2023-02-28T06:23:02;100212.09;;;9.54;100.00
7180;BME280;3631;42.152;24.756;2023-02-28T06:25:30;100215.53;;;9.55;100.00
7180;BME280;3631;42.152;24.756;2023-02-28T06:27:57;100214.66;;;9.56;100.00
7180;BME280;3631;42.152;24.756;2023-02-28T06:30:24;100209.59;;;9.46;100.00
7180;BME280;3631;42.152;24.756;2023-02-28T06:32:55;100214.72;;;9.50;100.00
7180;BME280;3631;42.152;24.756;2023-02-28T06:35:22;100215.59;;;9.48;100.00
7180;BME280;3631;42.152;24.756;2023-02-28T06:37:49;100223.19;;;9.64;100.00
7180;BME280;3631;42.152;24.756;2023-02-28T06:40:16;100218.81;;;9.67;100.00
7180;BME280;3631;42.152;24.756;2023-02-28T06:42:44;100220.59;;;9.64;100.00
7180;BME280;3631;42.152;24.756;2023-02-28T06:45:12;100221.47;;;9.63;100.00
7180;BME280;3631;42.152;24.756;2023-02-28T06:47:40;100221.34;;;9.72;100.00
7180;BME280;3631;42.152;24.756;2023-02-28T06:50:08;100219.38;;;9.89;100.00
7180;BME280;3631;42.152;24.756;2023-02-28T06:52:35;100223.53;;;9.99;100.00
7180;BME280;3631;42.152;24.756;2023-02-28T06:55:03;100218.41;;;9.95;100.00
7180;BME280;3631;42.152;24.756;2023-02-28T06:57:31;100231.22;;;10.05;100.00
7180;BME280;3631;42.152;24.756;2023-02-28T07:00:04;100222.00;;;9.86;100.00
7180;BME280;3631;42.152;24.756;2023-02-28T07:02:33;100230.81;;;9.73;100.00
7180;BME280;3631;42.152;24.756;2023-02-28T07:05:00;100243.03;;;9.66;100.00
7180;BME280;3631;42.152;24.756;2023-02-28T07:07:26;100242.03;;;9.75;100.00
7180;BME280;3631;42.152;24.756;2023-02-28T07:09:53;100244.56;;;9.81;100.00
7180;BME280;3631;42.152;24.756;2023-02-28T07:12:20;100248.13;;;9.72;100.00
7180;BME280;3631;42.152;24.756;2023-02-28T07:14:47;100242.94;;;9.71;100.00
7180;BME280;3631;42.152;24.756;2023-02-28T07:17:15;100236.00;;;9.74;100.00
7180;BME280;3631;42.152;24.756;2023-02-28T07:19:42;100242.94;;;9.71;100.00
7180;BME280;3631;42.152;24.756;2023-02-28T07:22:09;100243.88;;;9.68;100.00
7180;BME280;3631;42.152;24.756;2023-02-28T07:24:36;100247.25;;;9.72;100.00
7180;BME280;3631;42.152;24.756;2023-02-28T07:27:03;100244.63;;;9.76;100.00
7180;BME280;3631;42.152;24.756;2023-02-28T07:29:30;100249.78;;;9.76;100.00
7180;BME280;3631;42.152;24.756;2023-02-28T07:31:57;100259.28;;;9.79;100.00
7180;BME280;3631;42.152;24.756;2023-02-28T07:34:26;100258.47;;;9.72;100.00
7180;BME280;3631;42.152;24.756;2023-02-28T07:36:53;100251.69;;;9.65;100.00
7180;BME280;3631;42.152;24.756;2023-02-28T07:39:21;100269.00;;;9.62;100.00
7180;BME280;3631;42.152;24.756;2023-02-28T07:41:48;100270.84;;;9.54;100.00
7180;BME280;3631;42.152;24.756;2023-02-28T07:44:15;100265.69;;;9.49;100.00
7180;BME280;3631;42.152;24.756;2023-02-28T07:46:42;100263.91;;;9.54;100.00
7180;BME280;3631;42.152;24.756;2023-02-28T07:49:09;100259.59;;;9.53;100.00
7180;BME280;3631;42.152;24.756;2023-02-28T07:51:37;100236.38;;;9.47;100.00
7180;BME280;3631;42.152;24.756;2023-02-28T07:54:04;100242.31;;;9.55;100.00
7180;BME280;3631;42.152;24.756;2023-02-28T07:56:31;100248.50;;;9.45;100.00
7180;BME280;3631;42.152;24.756;2023-02-28T07:58:58;100255.28;;;9.54;100.00
7180;BME280;3631;42.152;24.756;2023-02-28T08:01:27;100253.59;;;9.51;100.00
7180;BME280;3631;42.152;24.756;2023-02-28T08:03:54;100261.13;;;9.69;100.00
7180;BME280;3631;42.152;24.756;2023-02-28T08:06:23;100268.97;;;9.65;100.00
7180;BME280;3631;42.152;24.756;2023-02-28T08:08:53;100256.97;;;9.58;100.00
7180;BME280;3631;42.152;24.756;2023-02-28T08:11:21;100271.56;;;9.65;100.00
7180;BME280;3631;42.152;24.756;2023-02-28T08:13:48;100253.56;;;9.54;100.00
7180;BME280;3631;42.152;24.756;2023-02-28T08:16:15;100272.44;;;9.64;100.00
7180;BME280;3631;42.152;24.756;2023-02-28T08:18:47;100275.06;;;9.61;100.00
7180;BME280;3631;42.152;24.756;2023-02-28T08:21:14;100272.53;;;9.56;100.00
7180;BME280;3631;42.152;24.756;2023-02-28T08:23:41;100274.25;;;9.57;100.00
7180;BME280;3631;42.152;24.756;2023-02-28T08:26:09;100265.59;;;9.58;100.00
7180;BME280;3631;42.152;24.756;2023-02-28T08:28:36;100261.09;;;9.71;100.00
7180;BME280;3631;42.152;24.756;2023-02-28T08:31:07;100259.34;;;9.71;100.00
7180;BME280;3631;42.152;24.756;2023-02-28T08:33:34;100269.81;;;9.67;100.00
7180;BME280;3631;42.152;24.756;2023-02-28T08:36:01;100244.81;;;9.61;100.00
7180;BME280;3631;42.152;24.756;2023-02-28T08:38:28;100244.66;;;9.72;100.00
7180;BME280;3631;42.152;24.756;2023-02-28T08:40:57;100249.06;;;9.67;100.00
7180;BME280;3631;42.152;24.756;2023-02-28T08:43:26;100262.78;;;9.73;100.00
7180;BME280;3631;42.152;24.756;2023-02-28T08:45:53;100271.41;;;9.77;100.00
7180;BME280;3631;42.152;24.756;2023-02-28T08:48:22;100263.53;;;9.83;100.00
7180;BME280;3631;42.152;24.756;2023-02-28T08:50:55;100278.03;;;9.98;100.00
7180;BME280;3631;42.152;24.756;2023-02-28T08:53:22;100279.59;;;10.08;100.00
7180;BME280;3631;42.152;24.756;2023-02-28T08:55:56;100272.63;;;10.11;100.00
7180;BME280;3631;42.152;24.756;2023-02-28T08:58:23;100277.72;;;10.21;100.00
7180;BME280;3631;42.152;24.756;2023-02-28T09:00:51;100280.31;;;10.19;100.00
7180;BME280;3631;42.152;24.756;2023-02-28T09:03:18;100275.13;;;10.19;100.00
7180;BME280;3631;42.152;24.756;2023-02-28T09:05:52;100285.47;;;10.22;100.00
7180;BME280;3631;42.152;24.756;2023-02-28T09:08:19;100265.91;;;9.98;100.00
7180;BME280;3631;42.152;24.756;2023-02-28T09:10:46;100273.63;;;10.03;100.00
7180;BME280;3631;42.152;24.756;2023-02-28T09:13:13;100278.59;;;10.16;100.00
7180;BME280;3631;42.152;24.756;2023-02-28T09:15:40;100286.44;;;10.15;100.00
7180;BME280;3631;42.152;24.756;2023-02-28T09:18:08;100280.44;;;10.10;100.00
7180;BME280;3631;42.152;24.756;2023-02-28T09:20:37;100282.22;;;10.06;100.00
7180;BME280;3631;42.152;24.756;2023-02-28T09:23:05;100271.06;;;10.01;100.00
7180;BME280;3631;42.152;24.756;2023-02-28T09:25:32;100279.72;;;10.00;100.00
7180;BME280;3631;42.152;24.756;2023-02-28T09:27:59;100277.25;;;9.93;100.00
7180;BME280;3631;42.152;24.756;2023-02-28T09:30:26;100255.53;;;9.98;100.00
7180;BME280;3631;42.152;24.756;2023-02-28T09:32:53;100266.75;;;10.00;100.00
7180;BME280;3631;42.152;24.756;2023-02-28T09:35:22;100258.00;;;10.06;100.00
7180;BME280;3631;42.152;24.756;2023-02-28T09:37:50;100247.50;;;10.15;100.00
7180;BME280;3631;42.152;24.756;2023-02-28T09:40:18;100253.44;;;10.25;100.00
7180;BME280;3631;42.152;24.756;2023-02-28T09:42:47;100249.88;;;10.30;100.00
7180;BME280;3631;42.152;24.756;2023-02-28T09:45:22;100253.34;;;10.31;100.00
7180;BME280;3631;42.152;24.756;2023-02-28T09:47:50;100262.25;;;10.11;100.00
7180;BME280;3631;42.152;24.756;2023-02-28T09:50:29;100268.28;;;10.13;100.00
7180;BME280;3631;42.152;24.756;2023-02-28T09:52:59;100259.63;;;10.14;100.00
7180;BME280;3631;42.152;24.756;2023-02-28T09:55:30;100266.66;;;10.05;100.00
7180;BME280;3631;42.152;24.756;2023-02-28T09:58:00;100260.72;;;9.98;100.00
7180;BME280;3631;42.152;24.756;2023-02-28T10:00:31;100259.03;;;9.94;100.00
7180;BME280;3631;42.152;24.756;2023-02-28T10:03:06;100243.63;;;9.83;100.00
7180;BME280;3631;42.152;24.756;2023-02-28T10:05:40;100234.97;;;9.86;100.00
7180;BME280;3631;42.152;24.756;2023-02-28T10:08:13;100228.00;;;9.91;100.00
7180;BME280;3631;42.152;24.756;2023-02-28T10:10:43;100223.75;;;9.84;100.00
7180;BME280;3631;42.152;24.756;2023-02-28T10:13:20;100225.22;;;10.02;100.00
7180;BME280;3631;42.152;24.756;2023-02-28T10:15:53;100228.59;;;10.07;100.00
7180;BME280;3631;42.152;24.756;2023-02-28T10:18:24;100226.09;;;10.02;100.00
7180;BME280;3631;42.152;24.756;2023-02-28T10:20:56;100229.47;;;10.07;100.00
7180;BME280;3631;42.152;24.756;2023-02-28T10:23:27;100230.50;;;9.94;100.00
7180;BME280;3631;42.152;24.756;2023-02-28T10:25:59;100227.06;;;9.94;100.00
7180;BME280;3631;42.152;24.756;2023-02-28T10:28:28;100215.72;;;10.02;100.00
7180;BME280;3631;42.152;24.756;2023-02-28T10:30:56;100215.66;;;10.05;100.00
7180;BME280;3631;42.152;24.756;2023-02-28T10:33:28;100214.56;;;10.22;100.00
7180;BME280;3631;42.152;24.756;2023-02-28T10:35:58;100203.44;;;10.13;100.00
7180;BME280;3631;42.152;24.756;2023-02-28T10:38:27;100210.34;;;10.14;100.00
7180;BME280;3631;42.152;24.756;2023-02-28T10:41:04;100220.75;;;10.11;100.00
7180;BME280;3631;42.152;24.756;2023-02-28T10:43:32;100205.19;;;10.11;100.00
7180;BME280;3631;42.152;24.756;2023-02-28T10:46:02;100224.22;;;10.12;100.00
7180;BME280;3631;42.152;24.756;2023-02-28T10:48:33;100214.69;;;10.12;100.00
7180;BME280;3631;42.152;24.756;2023-02-28T10:51:03;100219.91;;;10.11;100.00
7180;BME280;3631;42.152;24.756;2023-02-28T10:53:33;100207.91;;;10.04;100.00
7180;BME280;3631;42.152;24.756;2023-02-28T10:56:03;100202.75;;;10.02;100.00
7180;BME280;3631;42.152;24.756;2023-02-28T10:58:32;100204.41;;;10.05;100.00
7180;BME280;3631;42.152;24.756;2023-02-28T11:01:14;100193.91;;;10.15;100.00
7180;BME280;3631;42.152;24.756;2023-02-28T11:03:41;100199.16;;;10.11;100.00
7180;BME280;3631;42.152;24.756;2023-02-28T11:06:15;100194.81;;;10.11;100.00
7180;BME280;3631;42.152;24.756;2023-02-28T11:08:47;100194.97;;;10.02;100.00
7180;BME280;3631;42.152;24.756;2023-02-28T11:11:15;100191.66;;;9.93;100.00
7180;BME280;3631;42.152;24.756;2023-02-28T11:13:44;100194.50;;;9.76;100.00
7180;BME280;3631;42.152;24.756;2023-02-28T11:16:13;100194.53;;;9.73;100.00
7180;BME280;3631;42.152;24.756;2023-02-28T11:18:43;100187.63;;;9.73;100.00
7180;BME280;3631;42.152;24.756;2023-02-28T11:21:19;100189.38;;;9.71;100.00
7180;BME280;3631;42.152;24.756;2023-02-28T11:23:49;100192.00;;;9.70;100.00
7180;BME280;3631;42.152;24.756;2023-02-28T11:26:35;100184.59;;;9.42;100.00
7180;BME280;3631;42.152;24.756;2023-02-28T11:29:10;100186.31;;;9.45;100.00
7180;BME280;3631;42.152;24.756;2023-02-28T11:31:39;100177.66;;;9.44;100.00
7180;BME280;3631;42.152;24.756;2023-02-28T11:34:24;100181.91;;;9.48;100.00
7180;BME280;3631;42.152;24.756;2023-02-28T11:36:56;100155.41;;;9.31;100.00
7180;BME280;3631;42.152;24.756;2023-02-28T11:39:23;100163.06;;;9.39;100.00
7180;BME280;3631;42.152;24.756;2023-02-28T11:42:06;100180.19;;;9.49;100.00
7180;BME280;3631;42.152;24.756;2023-02-28T11:44:45;100175.16;;;9.37;100.00
7180;BME280;3631;42.152;24.756;2023-02-28T11:47:27;100175.28;;;9.29;100.00
7180;BME280;3631;42.152;24.756;2023-02-28T11:50:14;100170.13;;;9.26;100.00
7180;BME280;3631;42.152;24.756;2023-02-28T11:52:50;100177.13;;;9.21;100.00
7180;BME280;3631;42.152;24.756;2023-02-28T11:55:21;100177.13;;;9.21;100.00
7180;BME280;3631;42.152;24.756;2023-02-28T11:58:05;100178.00;;;9.19;100.00
7180;BME280;3631;42.152;24.756;2023-02-28T12:00:43;100168.59;;;9.13;100.00
7180;BME280;3631;42.152;24.756;2023-02-28T12:03:26;100166.81;;;9.15;100.00
7180;BME280;3631;42.152;24.756;2023-02-28T12:06:02;100169.38;;;9.17;100.00
7180;BME280;3631;42.152;24.756;2023-02-28T12:08:44;100154.03;;;9.03;100.00
7180;BME280;3631;42.152;24.756;2023-02-28T12:11:19;100158.16;;;9.16;100.00
7180;BME280;3631;42.152;24.756;2023-02-28T12:14:14;100158.94;;;9.24;100.00
7180;BME280;3631;42.152;24.756;2023-02-28T12:16:54;100161.47;;;9.27;100.00
7180;BME280;3631;42.152;24.756;2023-02-28T12:19:25;100125.50;;;9.06;100.00
7180;BME280;3631;42.152;24.756;2023-02-28T12:22:12;100157.25;;;9.23;100.00
7180;BME280;3631;42.152;24.756;2023-02-28T12:24:53;100157.22;;;9.25;100.00
7180;BME280;3631;42.152;24.756;2023-02-28T12:27:23;100164.22;;;9.17;100.00
7180;BME280;3631;42.152;24.756;2023-02-28T12:29:55;100158.16;;;9.16;100.00
7180;BME280;3631;42.152;24.756;2023-02-28T12:32:27;100135.09;;;9.01;100.00
7180;BME280;3631;42.152;24.756;2023-02-28T12:35:00;100156.47;;;9.15;100.00
7180;BME280;3631;42.152;24.756;2023-02-28T12:37:32;100149.53;;;9.16;100.00
7180;BME280;3631;42.152;24.756;2023-02-28T12:40:05;100146.09;;;9.15;100.00
7180;BME280;3631;42.152;24.756;2023-02-28T12:42:38;100148.78;;;9.07;100.00
7180;BME280;3631;42.152;24.756;2023-02-28T12:45:10;100147.06;;;9.08;100.00
7180;BME280;3631;42.152;24.756;2023-02-28T12:47:40;100144.47;;;9.09;100.00
7180;BME280;3631;42.152;24.756;2023-02-28T12:50:10;100140.13;;;9.10;100.00
7180;BME280;3631;42.152;24.756;2023-02-28T12:52:43;100142.66;;;9.15;100.00
7180;BME280;3631;42.152;24.756;2023-02-28T12:55:15;100143.56;;;9.12;100.00
7180;BME280;3631;42.152;24.756;2023-02-28T12:57:50;100147.78;;;9.18;100.00
7180;BME280;3631;42.152;24.756;2023-02-28T13:00:20;100130.41;;;9.26;100.00
7180;BME280;3631;42.152;24.756;2023-02-28T13:03:11;100148.38;;;9.38;100.00
7180;BME280;3631;42.152;24.756;2023-02-28T13:06:03;100148.47;;;9.33;100.00
7180;BME280;3631;42.152;24.756;2023-02-28T13:11:34;100132.81;;;9.39;100.00
7180;BME280;3631;42.152;24.756;2023-02-28T13:14:06;100129.50;;;9.31;100.00
7180;BME280;3631;42.152;24.756;2023-02-28T13:16:55;100135.56;;;9.27;100.00
7180;BME280;3631;42.152;24.756;2023-02-28T13:19:24;100133.09;;;9.21;100.00
7180;BME280;3631;42.152;24.756;2023-02-28T13:21:52;100138.38;;;9.14;100.00
7180;BME280;3631;42.152;24.756;2023-02-28T13:24:47;100137.53;;;9.13;100.00